createdAt,value
2023-05-13T00:01:47.540Z,100871.47
2023-05-13T00:04:16.176Z,100879.88
2023-05-13T00:06:43.604Z,100878.31
2023-05-13T00:09:11.121Z,100876.03
2023-05-13T00:11:40.261Z,100888.31
2023-05-13T00:14:09.624Z,100888.63
2023-05-13T00:16:37.183Z,100880.84
2023-05-13T00:19:04.726Z,100881.88
2023-05-13T00:21:33.727Z,100882.63
2023-05-13T00:24:01.214Z,100886.34
2023-05-13T00:26:28.755Z,100883.41
2023-05-13T00:28:57.544Z,100880.81
2023-05-13T00:31:25.116Z,100880.63
2023-05-13T00:33:52.569Z,100879.34
2023-05-13T00:36:20.110Z,100879.19
2023-05-13T00:38:47.559Z,100877.56
2023-05-13T00:41:15.016Z,100889.00
2023-05-13T00:43:42.466Z,100883.66
2023-05-13T00:46:11.367Z,100881.25
2023-05-13T00:48:39.201Z,100883.66
2023-05-13T00:51:06.722Z,100881.88
2023-05-13T00:53:34.957Z,100886.84
2023-05-13T00:56:02.451Z,100886.72
2023-05-13T00:58:29.919Z,100896.06
2023-05-13T01:01:04.100Z,100887.75
2023-05-13T01:03:37.387Z,100881.66
2023-05-13T01:06:10.024Z,100881.00
2023-05-13T01:08:42.622Z,100881.50
2023-05-13T01:11:14.538Z,100884.44
2023-05-13T01:13:43.311Z,100877.56
2023-05-13T01:16:14.703Z,100886.56
2023-05-13T01:18:46.251Z,100888.63
2023-05-13T01:21:13.839Z,100886.19
2023-05-13T01:23:42.829Z,100887.22
2023-05-13T01:26:10.305Z,100881.50
2023-05-13T01:28:37.852Z,100886.19
2023-05-13T01:31:10.668Z,100886.56
2023-05-13T01:33:38.463Z,100876.25
2023-05-13T01:36:06.674Z,100881.59
2023-05-13T01:38:35.030Z,100889.06
2023-05-13T01:41:03.865Z,100882.50
2023-05-13T01:43:31.371Z,100884.16
2023-05-13T01:46:00.511Z,100888.25
2023-05-13T01:48:28.089Z,100886.19
2023-05-13T01:50:56.002Z,100888.63
2023-05-13T01:53:23.582Z,100884.75
2023-05-13T01:55:51.275Z,100875.88
2023-05-13T01:58:20.079Z,100892.31
2023-05-13T02:00:47.560Z,100879.97
2023-05-13T02:03:15.095Z,100883.78
2023-05-13T02:05:42.636Z,100880.47
2023-05-13T02:08:11.868Z,100887.44
2023-05-13T02:10:39.376Z,100889.91
2023-05-13T02:13:06.851Z,100886.38
2023-05-13T02:15:35.759Z,100887.91
2023-05-13T02:18:03.285Z,100882.75
2023-05-13T02:20:30.752Z,100880.03
2023-05-13T02:22:58.219Z,100881.69
2023-05-13T02:25:25.744Z,100880.84
2023-05-13T02:27:53.239Z,100885.81
2023-05-13T02:30:21.445Z,100880.84
2023-05-13T02:32:50.534Z,100874.25
2023-05-13T02:35:18.004Z,100880.72
2023-05-13T02:37:45.599Z,100865.56
2023-05-13T02:40:13.882Z,100871.69
2023-05-13T02:42:41.443Z,100873.41
2023-05-13T02:45:10.337Z,100874.25
2023-05-13T02:47:37.877Z,100877.03
2023-05-13T02:50:09.923Z,100875.84
2023-05-13T02:52:38.921Z,100878.72
2023-05-13T02:55:08.210Z,100874.56
2023-05-13T02:57:36.183Z,100881.69
2023-05-13T03:00:04.480Z,100876.13
2023-05-13T03:02:32.169Z,100874.75
2023-05-13T03:04:59.769Z,100875.19
2023-05-13T03:07:28.645Z,100882.22
2023-05-13T03:09:56.123Z,100870.00
2023-05-13T03:12:23.780Z,100879.06
2023-05-13T03:14:51.470Z,100878.19
2023-05-13T03:17:19.052Z,100880.88
2023-05-13T03:19:46.641Z,100875.53
2023-05-13T03:22:14.121Z,100878.38
2023-05-13T03:24:43.154Z,100879.31
2023-05-13T03:27:10.753Z,100882.63
2023-05-13T03:29:38.211Z,100885.28
2023-05-13T03:32:06.401Z,100886.31
2023-05-13T03:34:36.160Z,100889.16
2023-05-13T03:37:03.744Z,100896.75
2023-05-13T03:39:31.200Z,100897.94
2023-05-13T03:42:00.039Z,100898.78
2023-05-13T03:44:27.502Z,100900.41
2023-05-13T03:46:55.018Z,100890.94
2023-05-13T03:49:22.531Z,100891.88
2023-05-13T03:51:50.023Z,100893.66
2023-05-13T03:54:17.506Z,100891.91
2023-05-13T03:56:44.967Z,100894.94
2023-05-13T03:59:13.824Z,100894.28
2023-05-13T04:01:41.372Z,100901.72
2023-05-13T04:04:08.887Z,100902.94
2023-05-13T04:06:36.381Z,100905.59
2023-05-13T04:09:04.650Z,100909.38
2023-05-13T04:11:32.460Z,100905.31
2023-05-13T04:13:59.992Z,100909.91
2023-05-13T04:16:29.343Z,100907.47
2023-05-13T04:18:56.903Z,100906.09
2023-05-13T04:21:24.442Z,100903.72
2023-05-13T04:23:51.982Z,100913.56
2023-05-13T04:26:20.211Z,100907.78
2023-05-13T04:28:47.680Z,100904.34
2023-05-13T04:31:15.322Z,100909.63
2023-05-13T04:33:45.181Z,100911.09
2023-05-13T04:36:14.970Z,100910.09
2023-05-13T04:38:42.703Z,100915.50
2023-05-13T04:41:10.269Z,100914.03
2023-05-13T04:43:37.728Z,100923.31
2023-05-13T04:46:05.479Z,100926.28
2023-05-13T04:48:32.986Z,100929.84
2023-05-13T04:51:02.238Z,100922.22
2023-05-13T04:53:30.136Z,100925.03
2023-05-13T04:56:00.826Z,100924.84
2023-05-13T04:58:28.862Z,100924.56
2023-05-13T05:00:57.288Z,100927.16
2023-05-13T05:03:25.109Z,100931.94
2023-05-13T05:05:53.550Z,100926.50
2023-05-13T05:08:22.431Z,100933.94
2023-05-13T05:10:49.912Z,100938.63
2023-05-13T05:13:17.392Z,100938.63
2023-05-13T05:15:44.864Z,100938.31
2023-05-13T05:18:13.972Z,100940.38
2023-05-13T05:20:41.665Z,100950.41
2023-05-13T05:23:10.475Z,100946.53
2023-05-13T05:25:39.302Z,100959.69
2023-05-13T05:28:07.687Z,100956.03
2023-05-13T05:30:39.921Z,100962.50
2023-05-13T05:33:08.133Z,100956.34
2023-05-13T05:35:37.328Z,100961.53
2023-05-13T05:38:05.316Z,100958.41
2023-05-13T05:40:32.884Z,100950.28
2023-05-13T05:43:01.795Z,100947.88
2023-05-13T05:45:29.701Z,100947.09
2023-05-13T05:47:57.638Z,100955.84
2023-05-13T05:50:25.330Z,100949.09
2023-05-13T05:52:52.813Z,100949.50
2023-05-13T05:55:20.327Z,100954.38
2023-05-13T05:57:47.896Z,100961.06
2023-05-13T06:00:20.025Z,100963.16
2023-05-13T06:02:48.790Z,100962.13
2023-05-13T06:05:16.752Z,100973.88
2023-05-13T06:07:44.256Z,100972.88
2023-05-13T06:10:12.237Z,100977.06
2023-05-13T06:12:40.766Z,100976.31
2023-05-13T06:15:10.765Z,100977.56
2023-05-13T06:17:39.920Z,100989.16
2023-05-13T06:20:08.298Z,100986.94
2023-05-13T06:22:35.873Z,100984.72
2023-05-13T06:25:03.371Z,100981.72
2023-05-13T06:27:30.852Z,100983.16
2023-05-13T06:29:58.511Z,100984.00
2023-05-13T06:32:25.970Z,100977.00
2023-05-13T06:34:56.024Z,100980.19
2023-05-13T06:37:23.689Z,100975.88
2023-05-13T06:39:51.368Z,100973.44
2023-05-13T06:42:18.921Z,100968.91
2023-05-13T06:44:46.373Z,100974.69
2023-05-13T06:47:16.108Z,100979.66
2023-05-13T06:49:44.009Z,100977.19
2023-05-13T06:52:12.932Z,100974.50
2023-05-13T06:54:40.431Z,100972.63
2023-05-13T06:57:08.027Z,100969.34
2023-05-13T06:59:36.499Z,100975.13
2023-05-13T07:02:04.398Z,100966.88
2023-05-13T07:04:31.938Z,100981.75
2023-05-13T07:06:59.430Z,100968.94
2023-05-13T07:09:28.270Z,100970.59
2023-05-13T07:11:55.810Z,100972.06
2023-05-13T07:14:25.047Z,100980.97
2023-05-13T07:16:52.717Z,100967.94
2023-05-13T07:19:20.224Z,100966.31
2023-05-13T07:21:47.733Z,100969.81
2023-05-13T07:24:15.227Z,100971.84
2023-05-13T07:26:44.063Z,100979.28
2023-05-13T07:29:11.547Z,100969.38
2023-05-13T07:31:39.269Z,100975.56
2023-05-13T07:34:07.058Z,100972.44
2023-05-13T07:36:34.641Z,100975.97
2023-05-13T07:39:02.397Z,100974.72
2023-05-13T07:41:29.928Z,100975.75
2023-05-13T07:43:58.708Z,100973.88
2023-05-13T07:46:26.232Z,100968.28
2023-05-13T07:48:53.708Z,100971.78
2023-05-13T07:51:21.185Z,100973.63
2023-05-13T07:53:48.990Z,100967.63
2023-05-13T07:56:16.519Z,100972.56
2023-05-13T07:58:45.931Z,100977.03
2023-05-13T08:01:14.738Z,100978.88
2023-05-13T08:03:42.320Z,100974.78
2023-05-13T08:06:10.001Z,100974.56
2023-05-13T08:08:37.561Z,100976.88
2023-05-13T08:11:05.063Z,100971.94
2023-05-13T08:13:32.591Z,100973.31
2023-05-13T08:16:01.867Z,100970.34
2023-05-13T08:18:31.010Z,100976.03
2023-05-13T08:20:58.525Z,100969.81
2023-05-13T08:23:40.300Z,100958.31
2023-05-13T08:26:11.552Z,100972.50
2023-05-13T08:28:39.058Z,100967.25
2023-05-13T08:31:06.579Z,100959.16
2023-05-13T08:33:35.764Z,100956.25
2023-05-13T08:36:03.282Z,100963.59
2023-05-13T08:38:30.807Z,100961.84
2023-05-13T08:40:58.434Z,100955.47
2023-05-13T08:43:30.499Z,100962.81
2023-05-13T08:45:58.756Z,100955.09
2023-05-13T08:48:26.405Z,100956.88
2023-05-13T08:50:55.244Z,100957.66
2023-05-13T08:53:23.812Z,100958.75
2023-05-13T08:55:51.643Z,100961.28
2023-05-13T08:58:19.245Z,100954.31
2023-05-13T09:00:46.764Z,100960.47
2023-05-13T09:03:14.259Z,100957.56
2023-05-13T09:05:43.141Z,100948.25
2023-05-13T09:08:12.326Z,100959.88
2023-05-13T09:10:39.944Z,100957.19
2023-05-13T09:13:07.580Z,100946.34
2023-05-13T09:15:35.126Z,100949.50
2023-05-13T09:18:04.618Z,100952.94
2023-05-13T09:20:33.187Z,100951.25
2023-05-13T09:23:02.038Z,100951.41
2023-05-13T09:25:31.237Z,100948.44
2023-05-13T09:28:00.344Z,100945.88
2023-05-13T09:30:29.354Z,100953.06
2023-05-13T09:33:09.951Z,100949.19
2023-05-13T09:35:38.671Z,100952.81
2023-05-13T09:38:16.592Z,100949.34
2023-05-13T09:40:52.770Z,100940.06
2023-05-13T09:43:21.809Z,100942.47
2023-05-13T09:45:49.468Z,100948.31
2023-05-13T09:48:16.923Z,100940.06
2023-05-13T09:50:49.288Z,100946.94
2023-05-13T09:53:17.359Z,100934.50
2023-05-13T09:55:47.207Z,100938.34
2023-05-13T09:58:16.200Z,100939.84
2023-05-13T10:00:44.493Z,100944.34
2023-05-13T10:03:12.657Z,100941.84
2023-05-13T10:05:40.844Z,100940.06
2023-05-13T10:08:09.777Z,100939.59
2023-05-13T10:10:37.817Z,100939.59
2023-05-13T10:13:07.516Z,100940.41
2023-05-13T10:15:36.533Z,100929.81
2023-05-13T10:18:06.660Z,100929.75
2023-05-13T10:20:34.952Z,100928.09
2023-05-13T10:23:04.134Z,100916.50
2023-05-13T10:25:31.792Z,100924.47
2023-05-13T10:27:59.557Z,100924.84
2023-05-13T10:30:27.520Z,100912.75
2023-05-13T10:32:56.399Z,100913.69
2023-05-13T10:35:25.565Z,100917.13
2023-05-13T10:38:01.568Z,100915.13
2023-05-13T10:40:54.079Z,100904.09
2023-05-13T10:43:22.541Z,100898.75
2023-05-13T10:45:51.747Z,100897.09
2023-05-13T10:48:20.603Z,100895.78
2023-05-13T10:50:56.553Z,100887.69
2023-05-13T10:53:25.410Z,100886.53
2023-05-13T10:55:56.968Z,100881.81
2023-05-13T10:58:30.094Z,100885.22
2023-05-13T11:01:16.264Z,100880.66
2023-05-13T11:03:52.302Z,100876.75
2023-05-13T11:06:21.517Z,100874.03
2023-05-13T11:08:50.430Z,100873.31
2023-05-13T11:11:19.256Z,100872.47
2023-05-13T11:13:46.714Z,100875.03
2023-05-13T11:16:14.965Z,100869.84
2023-05-13T11:18:42.855Z,100874.97
2023-05-13T11:21:11.760Z,100875.28
2023-05-13T11:23:53.025Z,100869.44
2023-05-13T11:26:21.368Z,100871.94
2023-05-13T11:29:00.480Z,100871.94
2023-05-13T11:31:29.806Z,100879.34
2023-05-13T11:34:13.909Z,100879.34
2023-05-13T11:36:44.913Z,100871.25
2023-05-13T11:39:14.687Z,100866.16
2023-05-13T11:41:43.934Z,100867.91
2023-05-13T11:44:13.578Z,100868.38
2023-05-13T11:46:50.425Z,100866.13
2023-05-13T11:49:36.575Z,100864.94
2023-05-13T11:52:07.713Z,100869.75
2023-05-13T11:54:43.171Z,100866.81
2023-05-13T11:57:20.066Z,100868.06
2023-05-13T11:59:52.832Z,100866.38
2023-05-13T12:02:22.160Z,100873.47
2023-05-13T12:04:50.059Z,100867.78
2023-05-13T12:07:24.854Z,100863.41
2023-05-13T12:09:52.950Z,100871.13
2023-05-13T12:12:20.929Z,100869.38
2023-05-13T12:14:50.255Z,100868.81
2023-05-13T12:17:18.333Z,100868.47
2023-05-13T12:20:07.186Z,100867.22
2023-05-13T12:22:36.834Z,100861.91
2023-05-13T12:25:37.772Z,100863.13
2023-05-13T12:28:07.962Z,100867.41
2023-05-13T12:30:35.474Z,100863.38
2023-05-13T12:33:04.860Z,100860.81
2023-05-13T12:35:32.809Z,100860.25
2023-05-13T12:38:03.214Z,100862.25
2023-05-13T12:40:30.911Z,100870.09
2023-05-13T12:42:59.086Z,100879.78
2023-05-13T12:45:30.817Z,100886.72
2023-05-13T12:47:59.575Z,100904.56
2023-05-13T12:50:27.614Z,100897.47
2023-05-13T12:52:57.585Z,100902.28
2023-05-13T12:55:27.213Z,100904.00
2023-05-13T12:57:59.996Z,100916.78
2023-05-13T13:00:27.960Z,100920.69
2023-05-13T13:02:55.480Z,100928.81
2023-05-13T13:05:24.278Z,100937.28
2023-05-13T13:07:52.162Z,100919.31
2023-05-13T13:10:19.993Z,100931.88
2023-05-13T13:12:49.464Z,100938.56
2023-05-13T13:15:16.971Z,100923.41
2023-05-13T13:17:44.512Z,100935.75
2023-05-13T13:20:12.579Z,100940.78
2023-05-13T13:22:40.155Z,100928.47
2023-05-13T13:25:08.452Z,100926.22
2023-05-13T13:27:35.998Z,100927.88
2023-05-13T13:30:05.690Z,100933.56
2023-05-13T13:32:35.275Z,100925.16
2023-05-13T13:35:03.182Z,100917.41
2023-05-13T13:37:31.147Z,100913.78
2023-05-13T13:39:58.834Z,100909.88
2023-05-13T13:42:36.812Z,100917.19
2023-05-13T13:45:13.516Z,100906.09
2023-05-13T13:47:41.462Z,100895.53
2023-05-13T13:50:09.532Z,100899.50
2023-05-13T13:52:36.991Z,100901.19
2023-05-13T13:55:05.109Z,100893.25
2023-05-13T13:57:32.610Z,100893.41
2023-05-13T14:00:00.205Z,100887.13
2023-05-13T14:02:29.110Z,100886.34
2023-05-13T14:04:56.614Z,100886.97
2023-05-13T14:07:24.128Z,100882.81
2023-05-13T14:09:52.362Z,100885.66
2023-05-13T14:12:19.834Z,100880.66
2023-05-13T14:14:47.324Z,100868.78
2023-05-13T14:17:14.783Z,100873.31
2023-05-13T14:19:43.617Z,100872.72
2023-05-13T14:22:11.143Z,100869.41
2023-05-13T14:24:38.618Z,100864.13
2023-05-13T14:27:06.710Z,100874.50
2023-05-13T14:29:34.435Z,100874.78
2023-05-13T14:32:03.707Z,100873.31
2023-05-13T14:34:31.178Z,100865.91
2023-05-13T14:36:59.982Z,100871.94
2023-05-13T14:39:27.459Z,100864.34
2023-05-13T14:41:54.937Z,100861.63
2023-05-13T14:44:22.477Z,100862.41
2023-05-13T14:46:50.119Z,100863.19
2023-05-13T14:49:17.603Z,100859.91
2023-05-13T14:51:45.057Z,100862.25
2023-05-13T14:54:13.844Z,100858.69
2023-05-13T14:56:41.936Z,100860.22
2023-05-13T14:59:09.444Z,100861.00
2023-05-13T15:01:36.961Z,100849.38
2023-05-13T15:04:04.484Z,100862.88
2023-05-13T15:06:32.066Z,100858.16
2023-05-13T15:08:59.708Z,100857.81
2023-05-13T15:11:28.798Z,100856.72
2023-05-13T15:13:56.479Z,100854.69
2023-05-13T15:16:23.990Z,100856.28
2023-05-13T15:18:51.553Z,100855.09
2023-05-13T15:21:19.103Z,100846.22
2023-05-13T15:23:46.593Z,100853.41
2023-05-13T15:26:14.173Z,100849.00
2023-05-13T15:28:42.984Z,100850.19
2023-05-13T15:31:10.502Z,100853.06
2023-05-13T15:33:38.038Z,100847.75
2023-05-13T15:36:06.606Z,100845.53
2023-05-13T15:38:34.049Z,100858.41
2023-05-13T15:41:03.558Z,100847.41
2023-05-13T15:43:31.677Z,100842.28
2023-05-13T15:46:01.401Z,100845.53
2023-05-13T15:48:30.073Z,100845.47
2023-05-13T15:50:57.658Z,100840.47
2023-05-13T15:53:25.116Z,100843.53
2023-05-13T15:55:52.571Z,100843.88
2023-05-13T15:58:20.009Z,100841.94
2023-05-13T16:00:47.461Z,100833.38
2023-05-13T16:03:17.017Z,100840.41
2023-05-13T16:05:44.781Z,100834.78
2023-05-13T16:08:12.243Z,100835.34
2023-05-13T16:10:39.725Z,100838.00
2023-05-13T16:13:07.215Z,100833.25
2023-05-13T16:15:34.696Z,100840.72
2023-05-13T16:18:02.246Z,100841.38
2023-05-13T16:20:31.202Z,100832.22
2023-05-13T16:22:58.655Z,100839.44
2023-05-13T16:25:27.021Z,100837.00
2023-05-13T16:27:55.038Z,100837.50
2023-05-13T16:30:22.722Z,100832.00
2023-05-13T16:32:53.202Z,100841.28
2023-05-13T16:35:20.917Z,100840.28
2023-05-13T16:37:50.022Z,100835.31
2023-05-13T16:40:17.517Z,100831.41
2023-05-13T16:42:45.145Z,100826.97
2023-05-13T16:45:12.901Z,100827.84
2023-05-13T16:47:40.390Z,100831.19
2023-05-13T16:50:08.988Z,100829.06
2023-05-13T16:52:36.455Z,100828.75
2023-05-13T16:55:05.876Z,100827.53
2023-05-13T16:57:33.371Z,100819.72
2023-05-13T17:00:00.829Z,100817.56
2023-05-13T17:02:28.377Z,100815.34
2023-05-13T17:04:55.956Z,100809.78
2023-05-13T17:07:23.436Z,100807.38
2023-05-13T17:09:51.113Z,100811.09
2023-05-13T17:12:19.940Z,100807.69
2023-05-13T17:14:47.415Z,100807.00
2023-05-13T17:17:14.893Z,100800.59
2023-05-13T17:19:42.458Z,100808.66
2023-05-13T17:22:09.893Z,100803.03
2023-05-13T17:24:38.429Z,100803.97
2023-05-13T17:27:06.199Z,100801.88
2023-05-13T17:29:35.036Z,100803.78
2023-05-13T17:32:02.490Z,100805.53
2023-05-13T17:34:29.933Z,100808.31
2023-05-13T17:36:57.419Z,100796.16
2023-05-13T17:39:24.838Z,100797.44
2023-05-13T17:41:52.291Z,100797.00
2023-05-13T17:44:20.391Z,100797.03
2023-05-13T17:46:49.230Z,100800.56
2023-05-13T17:49:16.904Z,100798.47
2023-05-13T17:51:44.440Z,100804.88
2023-05-13T17:54:11.958Z,100793.09
2023-05-13T17:56:39.539Z,100805.13
2023-05-13T17:59:07.626Z,100807.63
2023-05-13T18:01:35.086Z,100811.63
2023-05-13T18:04:03.971Z,100816.88
2023-05-13T18:06:31.425Z,100815.22
2023-05-13T18:08:58.934Z,100813.25
2023-05-13T18:11:26.616Z,100821.09
2023-05-13T18:13:54.107Z,100813.00
2023-05-13T18:16:21.654Z,100817.91
2023-05-13T18:18:49.426Z,100816.50
2023-05-13T18:21:18.266Z,100822.97
2023-05-13T18:23:46.459Z,100818.72
2023-05-13T18:26:13.960Z,100831.69
2023-05-13T18:28:44.660Z,100830.19
2023-05-13T18:31:12.459Z,100833.09
2023-05-13T18:33:39.973Z,100836.38
2023-05-13T18:36:10.017Z,100835.09
2023-05-13T18:38:39.502Z,100847.53
2023-05-13T18:41:07.110Z,100850.41
2023-05-13T18:43:34.595Z,100845.84
2023-05-13T18:46:02.145Z,100859.66
2023-05-13T18:48:29.643Z,100858.56
2023-05-13T18:50:57.154Z,100860.63
2023-05-13T18:53:24.612Z,100869.47
2023-05-13T18:55:53.391Z,100866.41
2023-05-13T18:58:20.859Z,100875.84
2023-05-13T19:00:48.299Z,100878.81
2023-05-13T19:03:16.063Z,100876.59
2023-05-13T19:05:43.697Z,100877.22
2023-05-13T19:08:11.259Z,100875.97
2023-05-13T19:10:40.339Z,100884.19
2023-05-13T19:13:09.573Z,100877.56
2023-05-13T19:15:37.087Z,100887.97
2023-05-13T19:18:04.849Z,100883.47
2023-05-13T19:20:32.414Z,100878.84
2023-05-13T19:22:59.988Z,100886.13
2023-05-13T19:25:27.516Z,100883.44
2023-05-13T19:27:55.028Z,100888.22
2023-05-13T19:30:24.129Z,100894.66
2023-05-13T19:32:51.895Z,100894.63
2023-05-13T19:35:19.408Z,100893.78
2023-05-13T19:37:46.946Z,100891.38
2023-05-13T19:40:14.457Z,100891.34
2023-05-13T19:42:42.007Z,100890.31
2023-05-13T19:45:11.005Z,100893.59
2023-05-13T19:47:40.558Z,100895.00
2023-05-13T19:50:08.533Z,100890.25
2023-05-13T19:52:36.194Z,100893.25
2023-05-13T19:55:04.354Z,100898.69
2023-05-13T19:57:31.818Z,100901.59
2023-05-13T19:59:59.424Z,100906.00
2023-05-13T20:02:27.091Z,100896.63
2023-05-13T20:04:56.275Z,100908.53
2023-05-13T20:07:23.767Z,100904.47
2023-05-13T20:09:51.240Z,100901.88
2023-05-13T20:12:19.039Z,100911.41
2023-05-13T20:14:48.059Z,100904.19
2023-05-13T20:17:17.598Z,100901.94
2023-05-13T20:19:45.298Z,100907.34
2023-05-13T20:22:14.588Z,100909.94
2023-05-13T20:24:42.033Z,100907.59
2023-05-13T20:27:09.563Z,100909.78
2023-05-13T20:29:37.496Z,100900.69
2023-05-13T20:32:05.843Z,100903.97
2023-05-13T20:34:34.503Z,100915.47
2023-05-13T20:37:02.281Z,100901.72
2023-05-13T20:39:31.125Z,100913.19
2023-05-13T20:41:58.861Z,100909.47
2023-05-13T20:44:26.598Z,100905.84
2023-05-13T20:46:54.194Z,100908.84
2023-05-13T20:49:21.689Z,100902.88
2023-05-13T20:51:49.463Z,100905.59
2023-05-13T20:54:16.968Z,100903.75
2023-05-13T20:56:45.834Z,100899.50
2023-05-13T20:59:13.316Z,100900.72
2023-05-13T21:01:41.421Z,100895.38
2023-05-13T21:04:09.839Z,100894.13
2023-05-13T21:06:37.423Z,100898.22
2023-05-13T21:09:05.202Z,100895.97
2023-05-13T21:11:32.655Z,100901.53
2023-05-13T21:14:01.447Z,100899.06
2023-05-13T21:16:29.326Z,100904.03
2023-05-13T21:18:56.877Z,100904.78
2023-05-13T21:21:24.345Z,100909.03
2023-05-13T21:23:51.805Z,100905.97
2023-05-13T21:26:19.275Z,100910.75
2023-05-13T21:28:46.735Z,100908.94
2023-05-13T21:31:15.757Z,100911.88
2023-05-13T21:33:43.336Z,100910.41
2023-05-13T21:36:10.807Z,100910.13
2023-05-13T21:38:38.248Z,100906.00
2023-05-13T21:41:05.779Z,100905.31
2023-05-13T21:43:33.301Z,100904.44
2023-05-13T21:46:00.733Z,100903.25
2023-05-13T21:48:29.603Z,100896.28
2023-05-13T21:50:57.782Z,100896.94
2023-05-13T21:53:25.236Z,100895.25
2023-05-13T21:55:53.517Z,100896.91
2023-05-13T21:58:23.304Z,100892.94
2023-05-13T22:00:51.467Z,100898.28
2023-05-13T22:03:18.986Z,100893.25
2023-05-13T22:05:47.772Z,100888.28
2023-05-13T22:08:15.608Z,100895.00
2023-05-13T22:10:43.064Z,100894.50
2023-05-13T22:13:10.616Z,100893.88
2023-05-13T22:15:38.246Z,100891.41
2023-05-13T22:18:07.786Z,100902.34
2023-05-13T22:20:36.035Z,100894.34
2023-05-13T22:23:04.840Z,100892.38
2023-05-13T22:25:32.390Z,100889.13
2023-05-13T22:27:59.922Z,100888.75
2023-05-13T22:30:27.355Z,100889.13
2023-05-13T22:32:55.766Z,100890.59
2023-05-13T22:35:23.522Z,100893.88
2023-05-13T22:37:52.524Z,100893.06
2023-05-13T22:40:21.714Z,100901.91
2023-05-13T22:42:49.548Z,100893.69
2023-05-13T22:45:17.138Z,100896.34
2023-05-13T22:47:44.612Z,100893.69
2023-05-13T22:50:13.187Z,100893.69
2023-05-13T22:52:40.823Z,100897.91
2023-05-13T22:55:09.506Z,100881.00
2023-05-13T22:57:38.302Z,100876.59
2023-05-13T23:00:07.182Z,100880.81
2023-05-13T23:02:34.697Z,100875.03
2023-05-13T23:05:02.638Z,100874.09
2023-05-13T23:07:30.166Z,100873.19
2023-05-13T23:09:57.657Z,100874.47
2023-05-13T23:12:25.111Z,100878.13
2023-05-13T23:14:54.058Z,100874.50
2023-05-13T23:17:21.500Z,100871.66
2023-05-13T23:19:48.936Z,100872.31
2023-05-13T23:22:16.562Z,100876.25
2023-05-13T23:24:44.086Z,100875.66
2023-05-13T23:27:11.639Z,100872.59
2023-05-13T23:29:39.107Z,100861.72
2023-05-13T23:32:08.673Z,100871.19
2023-05-13T23:34:36.365Z,100869.91
2023-05-13T23:37:03.837Z,100872.72
2023-05-13T23:39:31.341Z,100877.13
2023-05-13T23:41:58.809Z,100867.66
2023-05-13T23:44:26.253Z,100871.00
2023-05-13T23:46:53.692Z,100869.97
2023-05-13T23:49:22.536Z,100869.09
2023-05-13T23:51:50.035Z,100863.22
2023-05-13T23:54:17.645Z,100863.69
2023-05-13T23:56:45.103Z,100857.91
2023-05-13T23:59:12.528Z,100854.56
